Time;durP1;ratioP1;P1;durP2;ratioP2;P2;SDS_P1;SDS_P2;PMS_P1;PMS_P2;Temp;Humidity;BMP_temperature;BMP_pressure;BME280_temperature;BME280_humidity;BME280_pressure;Samples;Min_cycle;Max_cycle;Signal;HPM_P1;HPM_P2
2023/10/13 00:00:29;;;;;;;;;;;;;;;17.89;73.16;99898.75;1087744;47;1066;-78
2023/10/13 00:01:33;;;;;;;;;;;;;;;17.85;73.38;99901.00;1087735;54;1095;-79
2023/10/13 00:02:37;;;;;;;;;;;;;;;17.82;73.08;99901.41;1087812;47;971;-79
2023/10/13 00:03:39;;;;;;;;;;;;;;;17.81;73.36;99894.31;1087819;47;1058;-79
2023/10/13 00:04:43;;;;;;;;;;;;;;;17.80;73.26;99894.53;1087778;54;1319;-79
2023/10/13 00:05:44;;;;;;;;;;;;;;;17.76;73.54;99900.31;1087868;54;1445;-79
2023/10/13 00:06:45;;;;;;;;;;;;;;;17.70;73.46;99897.53;1087778;54;1381;-79
2023/10/13 00:07:49;;;;;;;;;;;;;;;17.64;73.84;99895.63;1087618;54;1210;-80
2023/10/13 00:08:50;;;;;;;;;;;;;;;17.61;74.20;99894.97;1087825;54;995;-79
2023/10/13 00:09:53;;;;;;;;;;;;;;;17.54;74.01;99888.69;1087219;54;1158;-79
2023/10/13 00:10:59;;;;;;;;;;;;;;;17.48;74.29;99886.75;1087799;54;1844;-79
2023/10/13 00:12:03;;;;;;;;;;;;;;;17.39;74.70;99885.22;1087974;54;1111;-80
2023/10/13 00:13:12;;;;;;;;;;;;;;;17.37;74.76;99888.13;1087742;47;1331;-79
2023/10/13 00:14:17;;;;;;;;;;;;;;;17.41;74.45;99886.72;1087694;54;1335;-78
2023/10/13 00:15:20;;;;;;;;;;;;;;;17.45;74.22;99885.28;1087704;54;1338;-80
2023/10/13 00:16:24;;;;;;;;;;;;;;;17.47;74.37;99882.41;1087842;46;1537;-80
2023/10/13 00:17:28;;;;;;;;;;;;;;;17.45;74.47;99887.97;1087593;47;982;-79
2023/10/13 00:18:33;;;;;;;;;;;;;;;17.45;74.97;99882.56;1087420;47;1026;-78
2023/10/13 00:19:45;;;;;;;;;;;;;;;17.40;75.54;99882.34;1087211;54;1178;-79
2023/10/13 00:20:49;;;;;;;;;;;;;;;17.38;75.63;99883.56;1087346;47;1325;-79
2023/10/13 00:21:49;;;;;;;;;;;;;;;17.37;76.24;99884.59;1087276;51;1101;-79
2023/10/13 00:22:53;;;;;;;;;;;;;;;17.39;75.08;99882.50;1087197;54;973;-79
2023/10/13 00:23:53;;;;;;;;;;;;;;;17.42;75.68;99884.84;1087497;54;1047;-79
2023/10/13 00:25:03;;;;;;;;;;;;;;;17.40;75.26;99882.34;1087571;47;1193;-80
2023/10/13 00:26:03;;;;;;;;;;;;;;;17.43;75.22;99875.69;1087649;54;1063;-78
2023/10/13 00:27:11;;;;;;;;;;;;;;;17.42;75.06;99888.38;1088169;54;1061;-77
2023/10/13 00:28:22;;;;;;;;;;;;;;;17.41;74.78;99892.13;1087993;54;935;-78
2023/10/13 00:29:30;;;;;;;;;;;;;;;17.40;75.86;99884.19;1087980;54;1019;-78
2023/10/13 00:30:33;;;;;;;;;;;;;;;17.38;76.35;99888.97;1087381;54;994;-78
2023/10/13 00:31:38;;;;;;;;;;;;;;;17.39;75.56;99887.91;1087578;54;1938;-78
2023/10/13 00:32:42;;;;;;;;;;;;;;;17.43;75.28;99887.31;1087547;47;956;-78
2023/10/13 00:33:46;;;;;;;;;;;;;;;17.44;75.48;99888.19;1087377;46;1004;-79
2023/10/13 00:34:47;;;;;;;;;;;;;;;17.45;75.15;99879.06;1087632;54;1194;-78
2023/10/13 00:35:51;;;;;;;;;;;;;;;17.42;75.29;99880.28;1087432;47;1004;-78
2023/10/13 00:38:12;;;;;;;;;;;;;;;17.41;76.06;99883.16;1087424;47;914;-78
2023/10/13 00:39:15;;;;;;;;;;;;;;;17.41;75.99;99878.59;1087559;54;1031;-78
2023/10/13 00:40:41;;;;;;;;;;;;;;;17.42;75.86;99882.13;1087563;47;1009;-78
2023/10/13 00:41:51;;;;;;;;;;;;;;;17.40;75.62;99878.78;1087535;46;955;-78
2023/10/13 00:42:59;;;;;;;;;;;;;;;17.37;75.48;99877.31;1087645;54;937;-78
2023/10/13 00:44:07;;;;;;;;;;;;;;;17.37;75.79;99876.47;1087505;54;945;-78
2023/10/13 00:45:08;;;;;;;;;;;;;;;17.37;75.50;99877.31;1087538;54;1364;-79
2023/10/13 00:46:12;;;;;;;;;;;;;;;17.36;75.74;99872.94;1087509;54;1371;-79
2023/10/13 00:47:32;;;;;;;;;;;;;;;17.36;75.82;99872.09;1087441;47;963;-77
2023/10/13 00:48:43;;;;;;;;;;;;;;;17.28;77.16;99878.47;1087560;54;1352;-78
2023/10/13 00:49:47;;;;;;;;;;;;;;;17.28;76.38;99879.31;1087571;47;980;-78
2023/10/13 00:50:50;;;;;;;;;;;;;;;17.28;76.39;99881.16;1087527;54;935;-78
2023/10/13 00:51:51;;;;;;;;;;;;;;;17.21;77.01;99878.41;1087388;47;1924;-78
2023/10/13 00:52:51;;;;;;;;;;;;;;;17.22;76.72;99882.78;1087575;54;888;-79
2023/10/13 00:53:56;;;;;;;;;;;;;;;17.20;76.31;99881.28;1087499;46;993;-79
2023/10/13 00:54:59;;;;;;;;;;;;;;;17.23;76.09;99878.22;1087474;47;1314;-79
2023/10/13 00:56:06;;;;;;;;;;;;;;;17.22;76.23;99884.66;1087402;54;1406;-78
2023/10/13 00:57:26;;;;;;;;;;;;;;;17.21;76.07;99877.56;1087239;47;1032;-79
2023/10/13 00:58:27;;;;;;;;;;;;;;;17.19;75.76;99880.47;1086699;54;1003;-80
2023/10/13 00:59:28;;;;;;;;;;;;;;;17.13;76.00;99878.53;1086675;54;1086;-79
2023/10/13 01:00:29;;;;;;;;;;;;;;;17.08;76.04;99884.50;1086866;47;1074;-79
2023/10/13 01:01:32;;;;;;;;;;;;;;;17.07;75.88;99888.22;1086694;54;1107;-79
2023/10/13 01:02:39;;;;;;;;;;;;;;;17.08;75.99;99881.78;1086642;47;1013;-80
2023/10/13 01:03:42;;;;;;;;;;;;;;;17.05;75.92;99886.75;1086729;47;1083;-79
2023/10/13 01:04:46;;;;;;;;;;;;;;;17.02;76.21;99889.81;1086645;47;1341;-79
2023/10/13 01:05:53;;;;;;;;;;;;;;;16.99;76.82;99881.09;1086755;54;1023;-79
2023/10/13 01:06:54;;;;;;;;;;;;;;;16.98;76.89;99889.38;1086863;54;1101;-79
2023/10/13 01:07:56;;;;;;;;;;;;;;;17.00;76.61;99884.63;1087001;54;1175;-79
2023/10/13 01:09:00;;;;;;;;;;;;;;;16.96;76.98;99878.78;1086839;47;983;-79
2023/10/13 01:10:04;;;;;;;;;;;;;;;16.94;77.56;99883.50;1086691;46;1098;-79
2023/10/13 01:11:07;;;;;;;;;;;;;;;16.94;77.10;99878.13;1086815;47;1887;-79
2023/10/13 01:12:11;;;;;;;;;;;;;;;16.95;76.92;99882.50;1086813;47;1091;-79
2023/10/13 01:13:11;;;;;;;;;;;;;;;16.92;77.37;99874.72;1086829;46;1106;-79
2023/10/13 01:14:12;;;;;;;;;;;;;;;16.91;77.79;99867.66;1086742;47;1362;-79
2023/10/13 01:15:20;;;;;;;;;;;;;;;16.92;77.45;99873.91;1086723;54;1340;-79
2023/10/13 01:16:23;;;;;;;;;;;;;;;16.82;77.39;99879.59;1086583;47;1087;-79
2023/10/13 01:17:24;;;;;;;;;;;;;;;16.81;78.50;99872.56;1086760;54;1099;-79
2023/10/13 01:18:28;;;;;;;;;;;;;;;16.82;77.80;99874.19;1086753;47;1015;-78
2023/10/13 01:19:38;;;;;;;;;;;;;;;16.83;77.80;99875.88;1087128;54;1301;-78
2023/10/13 01:20:45;;;;;;;;;;;;;;;16.86;77.47;99867.41;1087417;54;1314;-78
2023/10/13 01:21:48;;;;;;;;;;;;;;;16.86;77.45;99870.09;1086747;54;1351;-78
2023/10/13 01:22:55;;;;;;;;;;;;;;;16.83;77.32;99873.19;1087388;47;1138;-80
2023/10/13 01:23:58;;;;;;;;;;;;;;;16.84;77.38;99864.06;1088058;54;844;-79
2023/10/13 01:25:12;;;;;;;;;;;;;;;16.79;78.90;99863.81;1087670;54;1333;-79
2023/10/13 01:26:23;;;;;;;;;;;;;;;16.78;77.97;99859.44;1087886;54;881;-79
2023/10/13 01:27:25;;;;;;;;;;;;;;;16.79;77.71;99855.72;1087691;47;956;-78
2023/10/13 01:28:27;;;;;;;;;;;;;;;16.78;77.69;99856.72;1087743;47;964;-80
2023/10/13 01:29:30;;;;;;;;;;;;;;;16.71;79.49;99855.81;1088053;54;1034;-80
2023/10/13 01:30:31;;;;;;;;;;;;;;;16.61;80.09;99856.97;1088093;47;1022;-80
2023/10/13 01:31:37;;;;;;;;;;;;;;;16.53;80.71;99857.88;1088291;54;1859;-80
2023/10/13 01:32:43;;;;;;;;;;;;;;;16.59;79.50;99852.75;1088409;54;962;-79
2023/10/13 01:33:43;;;;;;;;;;;;;;;16.60;79.25;99851.72;1088189;54;1058;-80
2023/10/13 01:34:46;;;;;;;;;;;;;;;16.51;80.84;99851.84;1087572;54;1294;-79
2023/10/13 01:35:50;;;;;;;;;;;;;;;16.52;80.58;99855.38;1088089;47;1362;-80
2023/10/13 01:36:51;;;;;;;;;;;;;;;16.56;79.39;99859.38;1087977;47;902;-80
2023/10/13 01:37:52;;;;;;;;;;;;;;;16.58;79.34;99851.09;1088078;47;936;-80
2023/10/13 01:38:53;;;;;;;;;;;;;;;16.57;80.51;99849.44;1088128;54;971;-79
2023/10/13 01:39:59;;;;;;;;;;;;;;;16.55;79.92;99852.28;1087989;54;955;-78
2023/10/13 01:41:32;;;;;;;;;;;;;;;16.56;79.16;99853.97;1087926;54;982;-79
2023/10/13 01:44:11;;;;;;;;;;;;;;;16.57;79.49;99852.94;1087688;47;937;-80
2023/10/13 01:45:14;;;;;;;;;;;;;;;16.58;79.56;99846.53;1087722;54;1320;-79
2023/10/13 01:46:15;;;;;;;;;;;;;;;16.51;79.80;99856.41;1087543;47;961;-79
2023/10/13 01:47:18;;;;;;;;;;;;;;;16.52;79.27;99852.69;1087340;54;875;-79
2023/10/13 01:48:21;;;;;;;;;;;;;;;16.56;79.42;99842.34;1086401;54;1274;-78
2023/10/13 01:49:22;;;;;;;;;;;;;;;16.55;79.47;99837.97;1086683;54;1036;-78
2023/10/13 01:50:29;;;;;;;;;;;;;;;16.47;79.81;99852.41;1085933;54;1059;-79
2023/10/13 01:51:33;;;;;;;;;;;;;;;16.48;79.93;99846.00;1086143;47;1891;-79
2023/10/13 01:52:33;;;;;;;;;;;;;;;16.43;81.12;99838.47;1087724;54;923;-80
2023/10/13 01:53:35;;;;;;;;;;;;;;;16.45;80.09;99847.22;1087758;54;904;-80
2023/10/13 01:54:36;;;;;;;;;;;;;;;16.46;80.41;99842.63;1087674;54;1398;-79
2023/10/13 01:55:45;;;;;;;;;;;;;;;16.46;80.14;99842.63;1087339;47;1353;-80
2023/10/13 01:56:46;;;;;;;;;;;;;;;16.44;79.79;99844.69;1087350;54;951;-79
2023/10/13 01:57:47;;;;;;;;;;;;;;;16.45;80.52;99836.41;1087161;54;1073;-79
2023/10/13 01:58:51;;;;;;;;;;;;;;;16.47;80.60;99844.31;1087239;47;1008;-80
2023/10/13 01:59:52;;;;;;;;;;;;;;;16.44;80.25;99840.13;1087841;47;1089;-79
2023/10/13 02:00:53;;;;;;;;;;;;;;;16.45;80.06;99847.22;1087804;54;1046;-78
2023/10/13 02:01:57;;;;;;;;;;;;;;;16.49;79.50;99842.28;1088006;47;851;-79
2023/10/13 02:03:01;;;;;;;;;;;;;;;16.47;79.97;99847.88;1087836;54;961;-79
2023/10/13 02:04:03;;;;;;;;;;;;;;;16.48;80.19;99841.41;1087760;47;996;-79
2023/10/13 02:05:04;;;;;;;;;;;;;;;16.50;79.39;99841.25;1087807;47;1405;-79
2023/10/13 02:06:10;;;;;;;;;;;;;;;16.52;79.39;99836.50;1087796;47;955;-79
2023/10/13 02:07:14;;;;;;;;;;;;;;;16.53;79.02;99838.19;1087976;47;877;-79
2023/10/13 02:08:17;;;;;;;;;;;;;;;16.54;78.85;99834.44;1087786;54;1084;-80
2023/10/13 02:09:25;;;;;;;;;;;;;;;16.53;79.03;99832.78;1087845;54;1028;-79
2023/10/13 02:10:28;;;;;;;;;;;;;;;16.53;79.17;99832.78;1087272;54;1156;-80
2023/10/13 02:13:53;;;;;;;;;;;;;;;16.46;79.08;99829.16;1088438;54;817;-80
2023/10/13 02:14:54;;;;;;;;;;;;;;;16.40;79.30;99825.34;1088395;47;1312;-80
2023/10/13 02:16:04;;;;;;;;;;;;;;;16.41;79.27;99818.91;1088093;54;1105;-79
2023/10/13 02:17:16;;;;;;;;;;;;;;;16.37;79.52;99826.56;1088058;47;833;-80
2023/10/13 02:18:20;;;;;;;;;;;;;;;16.38;79.42;99822.00;1087946;47;884;-79
2023/10/13 02:19:21;;;;;;;;;;;;;;;16.41;79.59;99828.88;1087810;54;1027;-80
2023/10/13 02:20:24;;;;;;;;;;;;;;;16.42;79.48;99827.88;1087896;47;1111;-80
2023/10/13 02:21:31;;;;;;;;;;;;;;;16.42;79.21;99820.59;1088077;54;961;-79
2023/10/13 02:22:32;;;;;;;;;;;;;;;16.42;79.20;99820.59;1087884;54;1042;-79
2023/10/13 02:23:33;;;;;;;;;;;;;;;16.38;80.40;99819.31;1087680;47;1626;-79
2023/10/13 02:24:39;;;;;;;;;;;;;;;16.39;79.82;99820.97;1087398;47;1222;-79
2023/10/13 02:25:43;;;;;;;;;;;;;;;16.40;79.27;99819.13;1087594;54;994;-79
2023/10/13 02:26:46;;;;;;;;;;;;;;;16.36;79.50;99826.75;1087389;47;1091;-79
2023/10/13 02:27:58;;;;;;;;;;;;;;;16.35;79.52;99820.50;1087743;47;1162;-80
2023/10/13 02:29:04;;;;;;;;;;;;;;;16.35;79.24;99815.13;1087498;47;964;-79
2023/10/13 02:30:06;;;;;;;;;;;;;;;16.34;79.49;99820.72;1087298;54;1541;-79
2023/10/13 02:31:08;;;;;;;;;;;;;;;16.37;78.95;99809.56;1087812;54;1445;-80
2023/10/13 02:32:18;;;;;;;;;;;;;;;16.38;78.92;99806.66;1087865;54;1867;-80
2023/10/13 02:33:21;;;;;;;;;;;;;;;16.33;78.96;99808.25;1088013;54;943;-79
2023/10/13 02:34:23;;;;;;;;;;;;;;;16.35;78.47;99811.59;1087858;46;1479;-79
2023/10/13 02:35:31;;;;;;;;;;;;;;;16.34;78.35;99805.34;1087693;47;1004;-79
2023/10/13 02:36:36;;;;;;;;;;;;;;;16.30;78.34;99812.16;1087868;54;1066;-78
2023/10/13 02:37:36;;;;;;;;;;;;;;;16.28;78.45;99806.09;1087238;54;1104;-79
2023/10/13 02:38:45;;;;;;;;;;;;;;;16.25;78.33;99801.06;1087739;54;1071;-80
2023/10/13 02:39:46;;;;;;;;;;;;;;;16.20;78.57;99803.50;1086839;54;1023;-78
2023/10/13 02:40:46;;;;;;;;;;;;;;;16.21;78.85;99794.41;1085874;47;1173;-78
2023/10/13 02:41:55;;;;;;;;;;;;;;;16.21;78.45;99802.50;1085475;54;1570;-79
2023/10/13 02:42:56;;;;;;;;;;;;;;;16.19;78.67;99804.53;1086274;46;1376;-78
2023/10/13 02:43:56;;;;;;;;;;;;;;;16.22;78.48;99806.88;1086890;47;1630;-79
2023/10/13 02:44:57;;;;;;;;;;;;;;;16.17;78.44;99801.19;1086173;54;2076;-78
2023/10/13 02:46:01;;;;;;;;;;;;;;;16.14;78.34;99801.59;1085241;54;1134;-78
2023/10/13 02:47:05;;;;;;;;;;;;;;;16.12;78.40;99809.00;1088140;54;1111;-81
2023/10/13 02:48:16;;;;;;;;;;;;;;;16.10;78.54;99808.34;1088554;54;985;-81
2023/10/13 02:49:21;;;;;;;;;;;;;;;16.03;78.39;99803.72;1088451;54;913;-81
2023/10/13 02:50:43;;;;;;;;;;;;;;;15.98;78.31;99798.03;1088633;54;977;-82
2023/10/13 02:52:24;;;;;;;;;;;;;;;15.91;78.42;99797.13;1088459;54;1872;-81
2023/10/13 02:53:52;;;;;;;;;;;;;;;;;;;;;
2023/10/13 02:55:25;;;;;;;;;;;;;;;;;;;;;
2023/10/13 02:56:30;;;;;;;;;;;;;;;16.00;77.57;99798.69;1088179;54;986;-80
2023/10/13 02:57:41;;;;;;;;;;;;;;;16.00;77.76;99796.00;1088324;46;1430;-81
2023/10/13 02:58:46;;;;;;;;;;;;;;;16.00;77.45;99795.19;1088336;47;898;-81
2023/10/13 03:02:27;;;;;;;;;;;;;;;;;;;;;
2023/10/13 03:03:54;;;;;;;;;;;;;;;16.06;77.06;99795.25;1088685;54;1038;-80
2023/10/13 03:04:59;;;;;;;;;;;;;;;16.03;76.79;99789.38;1088302;54;1296;-79
2023/10/13 03:06:00;;;;;;;;;;;;;;;16.02;77.10;99801.19;1088621;46;1403;-80
2023/10/13 03:07:03;;;;;;;;;;;;;;;16.02;76.87;99799.34;1088576;54;1298;-79
2023/10/13 03:08:07;;;;;;;;;;;;;;;16.02;77.01;99793.97;1087677;47;2012;-77
2023/10/13 03:09:18;;;;;;;;;;;;;;;16.01;76.88;99791.47;1088247;54;1050;-79
2023/10/13 03:10:21;;;;;;;;;;;;;;;16.05;76.78;99796.28;1089065;47;1391;-79
2023/10/13 03:11:54;;;;;;;;;;;;;;;16.07;76.47;99796.09;1089103;46;1120;-78
2023/10/13 03:12:58;;;;;;;;;;;;;;;16.10;76.55;99792.19;1088665;47;1034;-80
2023/10/13 03:14:06;;;;;;;;;;;;;;;16.11;75.95;99796.56;1088735;47;1485;-79
2023/10/13 03:15:19;;;;;;;;;;;;;;;16.12;76.06;99787.44;1088967;54;1365;-79
2023/10/13 03:16:20;;;;;;;;;;;;;;;16.14;75.97;99793.50;1088841;54;945;-77
2023/10/13 03:17:33;;;;;;;;;;;;;;;16.14;76.22;99790.78;1088582;54;1047;-78
2023/10/13 03:18:36;;;;;;;;;;;;;;;16.14;76.12;99785.41;1088457;54;947;-78
2023/10/13 03:19:38;;;;;;;;;;;;;;;16.15;76.04;99787.06;1088576;47;1044;-79
2023/10/13 03:20:42;;;;;;;;;;;;;;;16.15;76.02;99787.91;1088524;47;991;-77
2023/10/13 03:21:45;;;;;;;;;;;;;;;16.17;75.85;99785.84;1088319;54;1067;-79
2023/10/13 03:22:46;;;;;;;;;;;;;;;16.19;75.95;99783.81;1088231;47;1505;-79
2023/10/13 03:23:47;;;;;;;;;;;;;;;16.21;75.92;99786.31;1088288;54;1019;-79
2023/10/13 03:24:53;;;;;;;;;;;;;;;16.21;75.57;99783.63;1088205;47;1490;-80
2023/10/13 03:25:55;;;;;;;;;;;;;;;16.24;75.40;99790.50;1088339;47;951;-80
2023/10/13 03:26:56;;;;;;;;;;;;;;;16.23;75.76;99786.97;1088174;47;1453;-78
2023/10/13 03:28:07;;;;;;;;;;;;;;;16.26;75.59;99799.22;1088316;54;935;-79
2023/10/13 03:29:14;;;;;;;;;;;;;;;16.20;76.00;99795.44;1088334;54;1197;-79
2023/10/13 03:30:15;;;;;;;;;;;;;;;16.18;76.20;99783.97;1088327;54;1372;-78
2023/10/13 03:31:27;;;;;;;;;;;;;;;16.17;76.08;99780.47;1088223;47;1401;-78
2023/10/13 03:32:30;;;;;;;;;;;;;;;16.20;75.90;99790.03;1088337;47;1852;-78
2023/10/13 03:33:33;;;;;;;;;;;;;;;16.20;75.98;99788.16;1088279;54;959;-79
2023/10/13 03:34:34;;;;;;;;;;;;;;;16.19;76.25;99791.06;1088245;47;1378;-79
2023/10/13 03:35:41;;;;;;;;;;;;;;;16.21;76.01;99789.00;1088232;47;1454;-79
2023/10/13 03:38:14;;;;;;;;;;;;;;;16.25;75.97;99787.59;1088484;47;1211;-80
2023/10/13 03:39:17;;;;;;;;;;;;;;;16.27;75.74;99780.16;1088205;47;1004;-79
2023/10/13 03:40:35;;;;;;;;;;;;;;;16.26;75.46;99783.88;1088010;54;1335;-79
2023/10/13 03:41:40;;;;;;;;;;;;;;;16.26;75.75;99781.19;1087557;54;986;-77
2023/10/13 03:42:41;;;;;;;;;;;;;;;16.22;75.51;99777.19;1087788;47;1309;-79
2023/10/13 03:43:51;;;;;;;;;;;;;;;16.26;75.54;99777.66;1087931;54;1002;-78
2023/10/13 03:44:55;;;;;;;;;;;;;;;16.22;75.94;99775.31;1087992;54;1368;-78
2023/10/13 03:46:07;;;;;;;;;;;;;;;16.21;76.29;99776.34;1088016;47;964;-80
2023/10/13 03:47:18;;;;;;;;;;;;;;;16.23;75.94;99773.50;1088373;54;1078;-79
2023/10/13 03:48:28;;;;;;;;;;;;;;;16.25;75.38;99771.41;1088415;54;1018;-79
2023/10/13 03:49:30;;;;;;;;;;;;;;;16.20;76.25;99773.84;1088135;47;907;-79
2023/10/13 03:50:35;;;;;;;;;;;;;;;16.22;75.97;99777.19;1088120;47;920;-79
2023/10/13 03:51:38;;;;;;;;;;;;;;;16.22;75.83;99777.19;1088533;54;1110;-80
2023/10/13 03:52:48;;;;;;;;;;;;;;;16.22;75.71;99771.81;1087683;47;1868;-78
2023/10/13 03:53:52;;;;;;;;;;;;;;;16.14;76.54;99769.22;1088042;54;1052;-79
2023/10/13 03:55:26;;;;;;;;;;;;;;;16.16;76.03;99772.53;1088609;54;1375;-79
2023/10/13 03:56:28;;;;;;;;;;;;;;;16.14;75.88;99780.00;1088172;54;1023;-79
2023/10/13 03:57:33;;;;;;;;;;;;;;;16.12;76.27;99773.97;1087850;54;1188;-78
2023/10/13 03:58:34;;;;;;;;;;;;;;;16.14;76.17;99780.84;1087805;54;962;-78
2023/10/13 03:59:38;;;;;;;;;;;;;;;16.13;76.19;99781.84;1087653;46;991;-79
2023/10/13 04:00:42;;;;;;;;;;;;;;;16.12;76.17;99779.34;1087634;54;1015;-79
2023/10/13 04:01:47;;;;;;;;;;;;;;;16.13;76.40;99778.34;1087846;54;1145;-79
2023/10/13 04:02:54;;;;;;;;;;;;;;;16.12;76.46;99779.34;1087965;54;991;-79
2023/10/13 04:04:03;;;;;;;;;;;;;;;16.10;76.49;99782.25;1087873;47;992;-78
2023/10/13 04:05:09;;;;;;;;;;;;;;;16.09;76.78;99782.41;1087820;54;1410;-79
2023/10/13 04:06:16;;;;;;;;;;;;;;;16.07;76.69;99777.22;1087837;46;1058;-79
2023/10/13 04:09:15;;;;;;;;;;;;;;;16.08;77.03;99780.75;1088179;46;870;-79
2023/10/13 04:12:17;;;;;;;;;;;;;;;16.02;77.88;99783.19;1086869;51;1195;-79
2023/10/13 04:16:14;;;;;;;;;;;;;;;16.00;77.09;99779.81;1086083;46;922;-78
2023/10/13 04:17:15;;;;;;;;;;;;;;;15.97;77.23;99773.97;1086475;54;1002;-78
2023/10/13 04:18:33;;;;;;;;;;;;;;;15.99;77.43;99774.63;1087445;54;1157;-78
2023/10/13 04:20:12;;;;;;;;;;;;;;;15.91;77.46;99780.94;1087871;54;1018;-77
2023/10/13 04:21:08;;;;;;;;;;;;;;;15.89;77.36;99782.97;1087372;47;951;-78
2023/10/13 04:22:14;;;;;;;;;;;;;;;15.82;78.61;99763.97;1086860;46;1067;-79
2023/10/13 04:23:19;;;;;;;;;;;;;;;15.80;78.07;99766.06;1087650;54;1335;-78
2023/10/13 04:24:39;;;;;;;;;;;;;;;15.79;77.66;99771.59;1087359;46;1283;-77
2023/10/13 04:25:52;;;;;;;;;;;;;;;15.80;77.28;99762.50;1086683;54;1074;-77
2023/10/13 04:28:17;;;;;;;;;;;;;;;15.81;77.01;99758.78;1087021;47;879;-77
2023/10/13 04:29:45;;;;;;;;;;;;;;;15.75;77.47;99769.31;1087233;54;1405;-78
2023/10/13 04:30:58;;;;;;;;;;;;;;;15.67;78.10;99763.16;1088006;54;987;-77
2023/10/13 04:32:02;;;;;;;;;;;;;;;15.64;78.44;99745.50;1087671;47;1842;-77
2023/10/13 04:33:35;;;;;;;;;;;;;;;15.61;77.99;99759.34;1087676;47;984;-78
2023/10/13 04:34:39;;;;;;;;;;;;;;;15.59;78.21;99756.84;1087533;54;1401;-78
2023/10/13 04:35:47;;;;;;;;;;;;;;;15.63;78.11;99757.31;1087788;47;916;-78
2023/10/13 04:36:57;;;;;;;;;;;;;;;15.66;78.06;99748.00;1088296;54;978;-77
2023/10/13 04:38:19;;;;;;;;;;;;;;;15.60;78.01;99753.13;1088430;47;883;-78
2023/10/13 04:39:29;;;;;;;;;;;;;;;15.63;77.65;99741.13;1088342;47;949;-78
2023/10/13 04:40:35;;;;;;;;;;;;;;;15.56;77.88;99737.50;1088390;54;1042;-78
2023/10/13 04:41:57;;;;;;;;;;;;;;;15.55;77.36;99738.53;1088428;47;1007;-79
2023/10/13 04:43:04;;;;;;;;;;;;;;;15.54;77.07;99736.84;1088457;47;1015;-79
2023/10/13 04:44:47;;;;;;;;;;;;;;;15.51;76.87;99748.84;1087793;47;1054;-79
2023/10/13 04:45:38;;;;;;;;;;;;;;;15.44;77.30;99746.03;1087599;47;960;-78
2023/10/13 04:46:54;;;;;;;;;;;;;;;15.46;76.51;99740.47;1087605;54;1601;-78
2023/10/13 04:48:13;;;;;;;;;;;;;;;15.47;76.51;99742.13;1087366;47;1042;-79
2023/10/13 04:49:27;;;;;;;;;;;;;;;15.51;76.14;99737.22;1087311;54;1090;-79
2023/10/13 04:50:41;;;;;;;;;;;;;;;15.53;76.07;99740.56;1087606;47;861;-79
2023/10/13 04:51:58;;;;;;;;;;;;;;;15.54;75.98;99736.84;1087618;54;908;-81
2023/10/13 04:53:02;;;;;;;;;;;;;;;15.50;75.70;99735.53;1088041;46;1892;-80
2023/10/13 04:54:10;;;;;;;;;;;;;;;15.54;75.67;99732.28;1088016;47;1011;-79
2023/10/13 04:55:32;;;;;;;;;;;;;;;15.47;75.23;99734.06;1087703;54;1423;-79
2023/10/13 04:58:27;;;;;;;;;;;;;;;15.46;75.16;99734.25;1087925;47;1020;-79
2023/10/13 04:59:37;;;;;;;;;;;;;;;15.48;75.34;99732.22;1087817;47;953;-79
2023/10/13 05:05:11;;;;;;;;;;;;;;;15.43;74.93;99720.13;1087621;54;1378;-80
2023/10/13 05:06:13;;;;;;;;;;;;;;;15.48;74.66;99711.50;1087700;46;944;-80
2023/10/13 05:44:55;;;;;;;;;;;;;;;15.06;73.39;99724.53;1088476;47;1377;-79
2023/10/13 05:48:01;;;;;;;;;;;;;;;15.13;72.89;99728.16;1088542;47;928;-80
2023/10/13 05:49:29;;;;;;;;;;;;;;;15.10;73.16;99733.06;1088349;47;941;-80
2023/10/13 05:50:49;;;;;;;;;;;;;;;15.10;73.11;99725.84;1088599;54;921;-80
2023/10/13 05:52:06;;;;;;;;;;;;;;;15.03;73.56;99724.88;1088557;54;999;-79
2023/10/13 17:25:56;;;;;;;;;;;;;;;24.63;34.64;99092.91;1089599;46;1703;-81
2023/10/13 17:27:00;;;;;;;;;;;;;;;24.56;34.12;99084.94;1087592;47;999;-81
2023/10/13 17:28:12;;;;;;;;;;;;;;;24.53;34.17;99085.44;1087660;47;1035;-80
2023/10/13 17:29:13;;;;;;;;;;;;;;;24.50;33.71;99085.16;1087638;47;1327;-81
2023/10/13 17:30:16;;;;;;;;;;;;;;;24.48;33.45;99079.94;1087298;47;975;-80
2023/10/13 17:31:17;;;;;;;;;;;;;;;24.45;33.60;99086.75;1087553;54;1007;-81
2023/10/13 17:32:22;;;;;;;;;;;;;;;24.41;32.79;99079.34;1087678;54;1066;-80
2023/10/13 17:33:24;;;;;;;;;;;;;;;24.44;32.77;99082.38;1087904;54;1115;-80
2023/10/13 17:34:28;;;;;;;;;;;;;;;24.43;32.54;99080.72;1088222;54;1095;-81
2023/10/13 17:35:31;;;;;;;;;;;;;;;24.42;32.89;99079.09;1087874;54;1392;-80
2023/10/13 17:36:34;;;;;;;;;;;;;;;24.42;32.53;99076.34;1087688;47;1054;-80
2023/10/13 17:37:37;;;;;;;;;;;;;;;24.41;32.64;99077.44;1087783;54;1852;-81
2023/10/13 17:38:38;;;;;;;;;;;;;;;24.41;32.25;99073.88;1087833;54;1069;-81
2023/10/13 17:39:44;;;;;;;;;;;;;;;24.37;32.22;99073.56;1087783;54;1081;-80
2023/10/13 17:40:44;;;;;;;;;;;;;;;24.39;32.13;99076.06;1088065;54;1189;-81
2023/10/13 17:45:52;;;;;;;;;;;;;;;24.27;32.26;99071.56;1088290;47;1335;-81
2023/10/13 17:47:00;;;;;;;;;;;;;;;24.28;32.17;99069.66;1087908;54;975;-80
2023/10/13 17:48:05;;;;;;;;;;;;;;;24.27;32.13;99070.75;1087502;47;1331;-80
2023/10/13 17:49:12;;;;;;;;;;;;;;;24.28;32.33;99069.66;1087950;54;1073;-80
2023/10/13 17:50:17;;;;;;;;;;;;;;;24.28;32.20;99075.13;1087232;54;1498;-79
2023/10/13 17:51:18;;;;;;;;;;;;;;;24.28;32.19;99070.50;1086764;47;1089;-80
2023/10/13 17:52:19;;;;;;;;;;;;;;;24.23;32.33;99067.69;1086672;54;1114;-79
2023/10/13 17:53:22;;;;;;;;;;;;;;;24.21;32.02;99064.44;1086973;47;1367;-79
2023/10/13 17:54:23;;;;;;;;;;;;;;;24.21;32.23;99064.44;1086744;47;1043;-80
2023/10/13 17:55:27;;;;;;;;;;;;;;;24.18;32.61;99061.41;1086281;47;1252;-80
2023/10/13 17:56:27;;;;;;;;;;;;;;;24.14;32.67;99066.53;1086325;47;1027;-79
2023/10/13 17:57:35;;;;;;;;;;;;;;;24.12;33.16;99066.78;1085964;47;1853;-80
2023/10/13 17:58:36;;;;;;;;;;;;;;;24.08;33.22;99065.69;1086047;47;1053;-80
2023/10/13 17:59:39;;;;;;;;;;;;;;;24.05;32.56;99060.72;1086199;54;1158;-80
2023/10/13 18:00:43;;;;;;;;;;;;;;;24.02;31.78;99061.22;1085360;54;1466;-80
2023/10/13 18:01:48;;;;;;;;;;;;;;;24.04;31.72;99070.00;1084500;54;1184;-80
2023/10/13 18:02:53;;;;;;;;;;;;;;;24.04;31.43;99067.25;1085395;54;1063;-80
2023/10/13 18:03:59;;;;;;;;;;;;;;;24.05;31.51;99066.19;1086358;47;985;-79
2023/10/13 18:05:02;;;;;;;;;;;;;;;24.06;31.89;99064.25;1086084;47;1370;-80
2023/10/13 18:06:03;;;;;;;;;;;;;;;24.03;31.14;99068.34;1086530;54;1119;-81
2023/10/13 18:07:07;;;;;;;;;;;;;;;24.04;31.00;99061.00;1086380;47;1095;-80
2023/10/13 18:08:14;;;;;;;;;;;;;;;24.07;31.47;99071.38;1086312;47;1151;-80
2023/10/13 18:09:18;;;;;;;;;;;;;;;24.09;31.15;99072.75;1088545;54;1021;-81
2023/10/13 18:10:18;;;;;;;;;;;;;;;24.11;31.11;99067.88;1087771;47;1119;-80
2023/10/13 18:11:23;;;;;;;;;;;;;;;24.08;31.32;99071.13;1088257;47;1398;-80
2023/10/13 18:12:24;;;;;;;;;;;;;;;24.07;30.80;99074.09;1088084;54;1095;-81
2023/10/13 18:13:30;;;;;;;;;;;;;;;24.04;30.83;99078.19;1088316;47;1094;-80
2023/10/13 18:14:31;;;;;;;;;;;;;;;24.02;30.86;99082.25;1088138;54;1236;-80
2023/10/13 18:15:34;;;;;;;;;;;;;;;23.96;31.15;99074.00;1088302;47;1153;-80
2023/10/13 18:16:36;;;;;;;;;;;;;;;23.94;31.03;99069.84;1088029;47;919;-80
2023/10/13 18:17:39;;;;;;;;;;;;;;;23.91;30.98;99073.94;1088057;54;1852;-80
2023/10/13 18:18:42;;;;;;;;;;;;;;;23.95;30.68;99071.53;1088118;54;1023;-80
2023/10/13 18:19:43;;;;;;;;;;;;;;;23.95;30.92;99071.53;1087563;54;1020;-81
2023/10/13 18:20:47;;;;;;;;;;;;;;;23.96;30.52;99070.47;1087428;46;1108;-80
2023/10/13 18:21:47;;;;;;;;;;;;;;;23.96;30.35;99068.53;1086693;54;1400;-80
2023/10/13 18:22:53;;;;;;;;;;;;;;;23.94;30.62;99067.13;1086323;47;1031;-81
2023/10/13 18:23:55;;;;;;;;;;;;;;;23.95;30.42;99069.63;1086418;46;1168;-81
2023/10/13 18:24:58;;;;;;;;;;;;;;;23.96;30.56;99068.53;1086353;54;1425;-80
2023/10/13 18:26:00;;;;;;;;;;;;;;;23.95;30.70;99063.34;1086329;47;1062;-80
2023/10/13 18:27:04;;;;;;;;;;;;;;;23.93;30.34;99062.75;1086557;54;1086;-80
2023/10/13 18:28:04;;;;;;;;;;;;;;;23.89;30.67;99067.09;1086379;47;1155;-79
2023/10/13 18:29:11;;;;;;;;;;;;;;;23.89;30.30;99065.16;1084946;46;1135;-79
2023/10/13 18:30:12;;;;;;;;;;;;;;;23.86;30.54;99065.66;1083821;47;1526;-79
2023/10/13 18:31:15;;;;;;;;;;;;;;;23.88;30.52;99062.69;1084093;54;1145;-80